Time;durP1;ratioP1;P1;durP2;ratioP2;P2;SDS_P1;SDS_P2;PMS_P1;PMS_P2;Temp;Humidity;BMP_temperature;BMP_pressure;BME280_temperature;BME280_humidity;BME280_pressure;Samples;Min_cycle;Max_cycle;Signal;HPM_P1;HPM_P2
2022/01/13 00:01:13;;;;;;;30.23;18.77;;;-3.60;99.90;;;;;;4955731;29;20174;-76
2022/01/13 00:03:38;;;;;;;29.83;19.83;;;-3.50;99.90;;;;;;4955079;28;20275;-76
2022/01/13 00:06:04;;;;;;;27.33;18.30;;;-3.50;99.90;;;;;;4954397;28;20281;-76
2022/01/13 00:08:30;;;;;;;29.33;19.03;;;-3.60;99.90;;;;;;4955620;28;20178;-77
2022/01/13 00:10:56;;;;;;;28.40;18.33;;;-3.50;99.90;;;;;;4955296;28;20202;-77
2022/01/13 00:13:25;;;;;;;29.57;18.67;;;-3.40;99.90;;;;;;4955189;29;20187;-77
2022/01/13 00:16:23;;;;;;;30.90;18.90;;;-3.10;99.90;;;;;;4955164;28;20664;-76
2022/01/13 00:18:48;;;;;;;32.10;19.13;;;-3.40;99.90;;;;;;4955226;28;20301;-76
2022/01/13 00:24:15;;;;;;;32.13;17.97;;;-3.50;99.90;;;;;;4895313;29;20229;-76
2022/01/13 00:26:42;;;;;;;30.57;18.57;;;-3.50;99.90;;;;;;4942051;29;20210;-77
2022/01/13 00:29:08;;;;;;;31.83;18.97;;;-3.50;99.90;;;;;;4954773;29;20889;-76
2022/01/13 00:31:38;;;;;;;25.63;18.00;;;-3.70;99.90;;;;;;4954746;29;20256;-75
2022/01/13 00:34:05;;;;;;;30.20;19.80;;;-3.80;99.90;;;;;;4954160;28;20522;-77
2022/01/13 00:36:38;;;;;;;28.43;18.67;;;-3.80;99.90;;;;;;4953608;28;20206;-76
2022/01/13 00:39:09;;;;;;;29.97;18.83;;;-3.80;99.90;;;;;;4953202;28;20220;-75
2022/01/13 00:41:34;;;;;;;30.57;19.17;;;-3.90;99.90;;;;;;4953875;28;20185;-75
2022/01/13 00:44:05;;;;;;;28.73;19.50;;;-3.90;99.90;;;;;;4954334;29;20174;-75
2022/01/13 00:46:41;;;;;;;31.83;21.03;;;-3.80;99.90;;;;;;4953413;28;20195;-75
2022/01/13 00:49:08;;;;;;;31.37;19.87;;;-3.70;99.90;;;;;;4953938;28;20555;-75
2022/01/13 00:51:33;;;;;;;35.67;20.40;;;-3.60;99.90;;;;;;4953702;29;20682;-75
2022/01/13 00:54:04;;;;;;;34.97;21.47;;;-3.50;99.90;;;;;;4953680;29;20210;-75
2022/01/13 00:56:31;;;;;;;34.47;22.37;;;-3.50;99.90;;;;;;4953539;28;20269;-75
2022/01/13 00:58:57;;;;;;;33.03;20.37;;;-3.40;99.90;;;;;;4953640;29;20228;-76
2022/01/13 01:01:22;;;;;;;33.30;20.83;;;-3.30;99.90;;;;;;4953741;29;20178;-76
2022/01/13 01:03:48;;;;;;;34.00;19.20;;;-3.10;99.90;;;;;;4953601;29;20178;-76
2022/01/13 01:06:14;;;;;;;30.10;19.77;;;-3.10;99.90;;;;;;4953027;29;20229;-76
2022/01/13 01:08:40;;;;;;;32.43;19.07;;;-3.30;99.90;;;;;;4953361;29;20177;-75
2022/01/13 01:11:06;;;;;;;31.43;19.50;;;-3.20;99.90;;;;;;4953464;28;20206;-75
2022/01/13 01:13:34;;;;;;;32.93;20.70;;;-3.00;99.90;;;;;;4953648;29;20178;-76
2022/01/13 01:16:05;;;;;;;33.67;19.73;;;-2.90;99.90;;;;;;4952993;28;20243;-77
2022/01/13 01:18:40;;;;;;;30.20;19.00;;;-3.10;99.90;;;;;;4953318;28;20218;-77
2022/01/13 01:23:56;;;;;;;29.67;18.97;;;-3.00;99.90;;;;;;4953508;29;20206;-76
2022/01/13 01:26:43;;;;;;;33.67;19.53;;;-2.80;99.90;;;;;;4952879;28;20214;-76
2022/01/13 01:29:26;;;;;;;29.57;18.40;;;-2.30;99.90;;;;;;4953313;29;20182;-76
2022/01/13 01:31:55;;;;;;;30.50;19.73;;;-2.70;99.90;;;;;;4953400;28;20175;-76
2022/01/13 01:37:17;;;;;;;30.93;19.50;;;-2.90;99.90;;;;;;4953154;28;20189;-76
2022/01/13 01:39:45;;;;;;;30.33;20.03;;;-2.70;99.90;;;;;;4952917;28;20691;-76
2022/01/13 01:42:11;;;;;;;31.80;19.50;;;-2.70;99.90;;;;;;4953179;28;20517;-76
2022/01/13 01:44:41;;;;;;;30.50;19.40;;;-2.70;99.90;;;;;;4952501;28;20244;-76
2022/01/13 01:47:13;;;;;;;30.53;20.40;;;-2.70;99.90;;;;;;4953144;29;20181;-76
2022/01/13 01:49:42;;;;;;;29.70;20.20;;;-2.80;99.90;;;;;;4952791;28;20175;-76
2022/01/13 01:52:10;;;;;;;33.07;20.70;;;-2.80;99.90;;;;;;4952817;28;20618;-76
2022/01/13 01:54:36;;;;;;;29.73;19.43;;;-2.70;99.90;;;;;;4952496;29;20186;-77
2022/01/13 01:57:03;;;;;;;38.43;21.47;;;-3.00;99.90;;;;;;4952955;28;20179;-76
2022/01/13 01:59:32;;;;;;;34.87;21.63;;;-2.80;99.90;;;;;;4952973;29;20317;-75
2022/01/13 02:01:59;;;;;;;33.37;20.57;;;-2.70;99.90;;;;;;4952504;29;20190;-76
2022/01/13 02:04:26;;;;;;;31.70;20.97;;;-2.80;99.90;;;;;;4952802;28;20178;-76
2022/01/13 02:06:54;;;;;;;33.40;21.60;;;-2.90;99.90;;;;;;4952467;28;20179;-76
2022/01/13 02:09:22;;;;;;;36.10;21.97;;;-3.00;99.90;;;;;;4953020;28;20266;-75
2022/01/13 02:11:52;;;;;;;34.37;21.10;;;-3.10;99.90;;;;;;4953043;28;20201;-76
2022/01/13 02:16:59;;;;;;;35.20;21.47;;;-2.80;99.90;;;;;;4952597;29;20189;-76
2022/01/13 02:19:25;;;;;;;35.00;22.00;;;-2.70;99.90;;;;;;4952380;28;20297;-76
2022/01/13 02:21:51;;;;;;;33.27;21.23;;;-2.60;99.90;;;;;;4952586;29;20253;-75
2022/01/13 02:24:17;;;;;;;38.33;22.63;;;-2.50;99.90;;;;;;4952169;29;20286;-76
2022/01/13 02:26:43;;;;;;;32.53;20.97;;;-2.30;99.90;;;;;;4952145;29;20722;-78
2022/01/13 02:29:09;;;;;;;34.83;22.70;;;-2.30;99.90;;;;;;4952622;29;20179;-75
2022/01/13 02:31:34;;;;;;;33.00;21.77;;;-2.30;99.90;;;;;;4952547;29;20175;-77
2022/01/13 02:34:00;;;;;;;32.53;22.60;;;-2.40;99.90;;;;;;4954225;28;20174;-76
2022/01/13 02:36:27;;;;;;;31.30;21.57;;;-2.50;99.90;;;;;;4957216;29;20717;-76
2022/01/13 02:38:54;;;;;;;34.33;21.67;;;-2.80;99.90;;;;;;4954535;28;20582;-77
2022/01/13 02:41:24;;;;;;;32.97;22.37;;;-2.70;99.90;;;;;;4954331;29;20198;-76
2022/01/13 02:43:55;;;;;;;36.03;22.67;;;-2.70;99.90;;;;;;4956588;28;20279;-77
2022/01/13 02:49:01;;;;;;;33.10;22.50;;;-2.30;99.90;;;;;;4953618;28;20601;-77
2022/01/13 02:51:27;;;;;;;37.43;22.43;;;-2.20;99.90;;;;;;4952360;28;20201;-77
2022/01/13 02:53:53;;;;;;;34.20;21.07;;;-2.00;99.90;;;;;;4952747;28;20656;-76
2022/01/13 02:56:19;;;;;;;34.90;22.37;;;-2.00;99.90;;;;;;4952180;29;20198;-76
2022/01/13 02:58:45;;;;;;;31.60;21.73;;;-2.10;99.90;;;;;;4952584;29;20213;-77
2022/01/13 03:01:12;;;;;;;34.20;22.70;;;-1.90;99.90;;;;;;4954443;28;20186;-77
2022/01/13 03:03:39;;;;;;;33.30;22.70;;;-2.00;99.90;;;;;;4958361;29;20190;-77
2022/01/13 03:06:09;;;;;;;38.30;22.40;;;-2.10;99.90;;;;;;4955894;29;20661;-78
2022/01/13 03:08:36;;;;;;;33.77;21.73;;;-2.20;99.90;;;;;;4956435;29;20183;-76
2022/01/13 03:11:02;;;;;;;32.63;22.07;;;-2.30;99.90;;;;;;4955688;29;20174;-75
2022/01/13 03:13:29;;;;;;;32.13;21.57;;;-2.40;99.90;;;;;;4955784;28;20181;-76
2022/01/13 03:15:55;;;;;;;34.47;22.50;;;-2.40;99.90;;;;;;4955163;29;20205;-76
2022/01/13 03:18:20;;;;;;;35.30;22.80;;;-2.30;99.90;;;;;;4955428;28;20301;-76
2022/01/13 03:20:46;;;;;;;35.23;21.70;;;-2.30;99.90;;;;;;4955596;29;20182;-76
2022/01/13 03:23:16;;;;;;;34.73;22.47;;;-2.30;99.90;;;;;;4955535;29;20182;-76
2022/01/13 03:25:44;;;;;;;36.13;21.90;;;-2.10;99.90;;;;;;4955341;29;20221;-76
2022/01/13 03:28:15;;;;;;;32.53;21.33;;;-2.20;99.90;;;;;;4956208;29;20568;-77
2022/01/13 03:30:41;;;;;;;33.50;21.60;;;-2.20;99.90;;;;;;4956233;29;20273;-76
2022/01/13 03:33:08;;;;;;;34.90;21.23;;;-2.20;99.90;;;;;;4955291;29;20206;-76
2022/01/13 03:35:34;;;;;;;35.37;21.23;;;-2.20;99.90;;;;;;4954833;28;20202;-76
2022/01/13 03:38:00;;;;;;;36.27;21.67;;;-2.20;99.90;;;;;;4955246;29;20570;-76
2022/01/13 03:40:27;;;;;;;33.33;21.67;;;-2.40;99.90;;;;;;4955181;28;20632;-76
2022/01/13 03:42:53;;;;;;;32.30;21.87;;;-2.40;99.90;;;;;;4955035;29;20214;-77
2022/01/13 03:45:21;;;;;;;37.53;22.43;;;-2.40;99.90;;;;;;4954527;29;20253;-76
2022/01/13 03:47:46;;;;;;;34.50;22.47;;;-2.40;99.90;;;;;;4955449;29;20281;-76
2022/01/13 03:50:13;;;;;;;35.30;23.30;;;-2.50;99.90;;;;;;4955492;29;20194;-75
2022/01/13 03:52:38;;;;;;;33.53;22.33;;;-2.20;99.90;;;;;;4955332;29;20172;-76
2022/01/13 03:55:36;;;;;;;30.73;20.83;;;-2.30;99.90;;;;;;4955047;28;20582;-74
2022/01/13 03:58:20;;;;;;;31.93;22.00;;;-2.30;99.90;;;;;;4955275;29;20214;-75
2022/01/13 04:01:20;;;;;;;36.63;23.20;;;-2.50;99.90;;;;;;4954837;29;20191;-76
2022/01/13 04:03:46;;;;;;;37.47;22.37;;;-2.70;99.90;;;;;;4954994;29;20259;-76
2022/01/13 04:06:11;;;;;;;35.80;22.50;;;-2.70;99.90;;;;;;4954239;28;20196;-77
2022/01/13 04:08:38;;;;;;;34.40;22.30;;;-2.70;99.90;;;;;;4954606;28;20265;-75
2022/01/13 04:11:04;;;;;;;36.00;22.87;;;-2.70;99.90;;;;;;4954548;28;20650;-75
2022/01/13 04:16:36;;;;;;;41.07;24.60;;;-2.80;99.90;;;;;;4932394;29;20250;-75
2022/01/13 04:19:05;;;;;;;37.97;22.73;;;-2.80;99.90;;;;;;4932853;29;20222;-74
2022/01/13 04:21:32;;;;;;;36.67;22.47;;;-2.50;99.90;;;;;;4943568;29;20189;-75
2022/01/13 04:23:58;;;;;;;36.37;22.97;;;-2.30;99.90;;;;;;4954407;28;20249;-74
2022/01/13 04:26:28;;;;;;;36.90;22.57;;;-2.30;99.90;;;;;;4953725;28;20198;-75
2022/01/13 04:29:03;;;;;;;35.70;21.83;;;-2.30;99.90;;;;;;4954491;29;20188;-77
2022/01/13 04:31:28;;;;;;;34.27;22.10;;;-2.50;99.90;;;;;;4954526;29;20181;-78
2022/01/13 04:33:54;;;;;;;37.33;22.93;;;-2.40;99.90;;;;;;4954707;29;20178;-76
2022/01/13 04:36:19;;;;;;;33.30;22.13;;;-2.40;99.90;;;;;;4954211;29;20199;-78
2022/01/13 04:38:45;;;;;;;40.80;23.63;;;-2.50;99.90;;;;;;4954506;29;20237;-76
2022/01/13 04:41:11;;;;;;;35.83;22.90;;;-2.60;99.90;;;;;;4954331;29;20170;-76
2022/01/13 04:43:36;;;;;;;35.30;22.30;;;-2.50;99.90;;;;;;4953743;29;20175;-76
2022/01/13 04:46:02;;;;;;;35.10;22.13;;;-2.30;99.90;;;;;;4953420;29;20194;-76
2022/01/13 04:48:27;;;;;;;36.60;23.23;;;-2.20;99.90;;;;;;5043830;23;20234;-78
2022/01/13 04:50:53;;;;;;;34.07;22.37;;;-2.40;99.90;;;;;;4944273;29;20558;-79
2022/01/13 04:53:19;;;;;;;33.60;22.70;;;-2.50;99.90;;;;;;4943495;29;20179;-79
2022/01/13 04:55:50;;;;;;;35.03;22.77;;;-2.60;99.90;;;;;;4941886;29;20233;-79
2022/01/13 04:58:17;;;;;;;39.20;23.33;;;-2.60;99.90;;;;;;4942399;29;20211;-77
2022/01/13 05:00:42;;;;;;;35.93;22.33;;;-2.70;99.90;;;;;;4938677;29;20233;-78
2022/01/13 05:03:08;;;;;;;39.43;23.97;;;-2.60;99.90;;;;;;4938948;29;20643;-77
2022/01/13 05:05:33;;;;;;;36.17;22.90;;;-2.40;99.90;;;;;;4937135;29;20216;-77
2022/01/13 05:07:59;;;;;;;38.33;23.33;;;-2.30;99.90;;;;;;4944040;29;20175;-77
2022/01/13 05:10:24;;;;;;;35.10;23.10;;;-2.50;99.90;;;;;;4947319;29;20653;-77
2022/01/13 05:12:55;;;;;;;38.23;23.70;;;-2.60;99.90;;;;;;4935386;29;20707;-77
2022/01/13 05:15:24;;;;;;;38.90;23.27;;;-2.60;99.90;;;;;;4934595;29;20262;-77
2022/01/13 05:20:27;;;;;;;41.63;23.37;;;-2.60;99.90;;;;;;4935268;29;20183;-77
2022/01/13 05:22:53;;;;;;;36.57;22.43;;;-2.60;99.90;;;;;;4934842;29;20202;-77
2022/01/13 05:25:20;;;;;;;39.23;24.20;;;-2.50;99.90;;;;;;4933951;29;20584;-77
2022/01/13 05:27:46;;;;;;;41.37;23.07;;;-2.60;99.90;;;;;;4934996;29;20182;-76
2022/01/13 05:30:13;;;;;;;38.80;23.57;;;-2.40;99.90;;;;;;4935166;29;20712;-77
2022/01/13 05:32:38;;;;;;;41.07;23.53;;;-2.50;99.90;;;;;;4934861;29;20187;-76
2022/01/13 05:35:05;;;;;;;38.07;23.00;;;-2.50;99.90;;;;;;4934427;29;20227;-77
2022/01/13 05:37:30;;;;;;;38.80;23.03;;;-2.50;99.90;;;;;;4934820;29;20179;-77
2022/01/13 05:39:57;;;;;;;36.63;22.20;;;-2.70;99.90;;;;;;4934998;29;20194;-77
2022/01/13 05:42:22;;;;;;;35.10;22.63;;;-2.50;99.90;;;;;;4934762;29;20202;-77
2022/01/13 05:44:48;;;;;;;36.13;24.13;;;-2.40;99.90;;;;;;4934431;29;20661;-76
2022/01/13 05:47:14;;;;;;;35.27;23.30;;;-2.40;99.90;;;;;;4934764;29;20279;-76
2022/01/13 05:49:41;;;;;;;39.37;23.53;;;-2.50;99.90;;;;;;4934486;29;20205;-77
2022/01/13 05:52:08;;;;;;;33.67;22.23;;;-2.60;99.90;;;;;;4934546;29;20640;-77
2022/01/13 05:54:34;;;;;;;38.13;24.23;;;-2.50;99.90;;;;;;4934056;29;20183;-77
2022/01/13 05:56:59;;;;;;;37.27;24.03;;;-2.40;99.90;;;;;;4934582;29;20226;-77
2022/01/13 05:59:25;;;;;;;39.20;22.80;;;-2.50;99.90;;;;;;4934268;29;20309;-77
2022/01/13 06:01:51;;;;;;;37.97;22.87;;;-2.30;99.90;;;;;;4934496;29;20185;-77
2022/01/13 06:04:17;;;;;;;37.20;23.50;;;-2.40;99.90;;;;;;4934030;29;20281;-77
2022/01/13 06:06:42;;;;;;;34.07;22.63;;;-2.40;99.90;;;;;;4934263;29;20732;-77
2022/01/13 06:09:08;;;;;;;37.40;22.63;;;-2.60;99.90;;;;;;4917306;29;20572;-76
2022/01/13 06:11:39;;;;;;;36.83;23.57;;;-2.40;99.90;;;;;;4934444;29;20175;-77
2022/01/13 06:14:05;;;;;;;42.80;24.07;;;-2.40;99.90;;;;;;4934498;29;20258;-77
2022/01/13 06:16:31;;;;;;;36.23;23.20;;;-2.20;99.90;;;;;;4933621;29;20254;-77
2022/01/13 06:18:56;;;;;;;37.00;23.13;;;-2.10;99.90;;;;;;4934088;29;20710;-77
2022/01/13 06:21:22;;;;;;;37.20;23.53;;;-2.00;99.90;;;;;;4934490;29;20179;-77
2022/01/13 06:23:47;;;;;;;38.27;23.37;;;-2.40;99.90;;;;;;4934488;29;20179;-77
2022/01/13 06:26:13;;;;;;;34.80;23.03;;;-2.40;99.90;;;;;;4933887;29;20199;-77
2022/01/13 06:28:39;;;;;;;38.70;23.63;;;-2.50;99.90;;;;;;4934478;29;20179;-77
2022/01/13 06:31:04;;;;;;;34.00;22.20;;;-2.70;99.90;;;;;;4935398;29;20175;-76
2022/01/13 06:33:30;;;;;;;37.37;21.87;;;-2.80;99.90;;;;;;4934270;29;20183;-77
2022/01/13 06:35:55;;;;;;;37.07;22.70;;;-2.70;99.90;;;;;;4935280;29;20202;-77
2022/01/13 06:38:21;;;;;;;39.77;24.30;;;-2.90;99.90;;;;;;4938120;29;20230;-76
2022/01/13 06:40:49;;;;;;;39.10;24.03;;;-3.00;99.90;;;;;;4937989;29;20175;-77
2022/01/13 06:43:15;;;;;;;35.60;22.10;;;-3.00;99.90;;;;;;4937937;29;20218;-76
2022/01/13 06:45:41;;;;;;;38.43;23.80;;;-3.00;99.90;;;;;;4937897;29;20215;-77
2022/01/13 06:48:07;;;;;;;37.90;24.07;;;-2.80;99.90;;;;;;4938214;29;20258;-77
2022/01/13 06:50:34;;;;;;;39.63;23.37;;;-2.80;99.90;;;;;;4937822;29;20509;-77
2022/01/13 06:52:59;;;;;;;38.73;24.43;;;-2.90;99.90;;;;;;4938214;29;20190;-77
2022/01/13 06:55:25;;;;;;;37.97;23.17;;;-3.00;99.90;;;;;;4937771;29;20199;-76
2022/01/13 06:57:52;;;;;;;40.23;24.40;;;-3.00;99.90;;;;;;4937646;29;20187;-76
2022/01/13 07:00:18;;;;;;;37.50;22.90;;;-2.90;99.90;;;;;;4942074;29;20183;-77
2022/01/13 07:02:43;;;;;;;39.60;22.10;;;-3.10;99.90;;;;;;4937308;29;20190;-76
2022/01/13 07:05:09;;;;;;;36.37;22.40;;;-2.90;99.90;;;;;;4936834;29;20235;-77
2022/01/13 07:07:37;;;;;;;35.37;22.47;;;-2.90;99.90;;;;;;4937129;29;20190;-76
2022/01/13 07:10:04;;;;;;;33.63;21.63;;;-3.00;99.90;;;;;;4937055;29;20186;-76
2022/01/13 07:12:29;;;;;;;32.83;21.63;;;-3.10;99.90;;;;;;4937082;29;20183;-76
2022/01/13 07:14:57;;;;;;;36.67;22.53;;;-3.40;99.90;;;;;;4936638;29;20199;-77
2022/01/13 07:17:23;;;;;;;35.43;21.27;;;-3.40;99.90;;;;;;4936960;29;20557;-77
2022/01/13 07:19:51;;;;;;;33.37;21.03;;;-3.50;99.90;;;;;;4936963;29;20219;-76
2022/01/13 07:22:17;;;;;;;34.97;23.30;;;-3.50;99.90;;;;;;4937110;29;20250;-76
2022/01/13 07:24:43;;;;;;;35.80;21.63;;;-3.50;99.90;;;;;;4936455;29;20183;-76
2022/01/13 07:27:08;;;;;;;35.40;22.83;;;-3.50;99.90;;;;;;4937192;29;20187;-78
2022/01/13 07:29:34;;;;;;;34.17;21.33;;;-3.40;99.90;;;;;;4936855;29;20187;-76
2022/01/13 07:31:59;;;;;;;32.60;20.63;;;-2.90;99.90;;;;;;4936788;29;20268;-75
2022/01/13 07:34:25;;;;;;;31.07;20.13;;;-2.60;20.70;;;;;;4936318;29;20187;-76
2022/01/13 07:36:50;;;;;;;36.10;21.73;;;-2.60;1.00;;;;;;4936792;29;20211;-77
2022/01/13 07:39:16;;;;;;;34.10;21.37;;;-2.70;1.00;;;;;;4936642;29;20215;-75
2022/01/13 07:41:42;;;;;;;32.67;19.67;;;-2.80;1.00;;;;;;4933820;29;20171;-76
2022/01/13 07:44:08;;;;;;;35.67;21.67;;;-2.80;1.00;;;;;;4936540;29;20188;-77
2022/01/13 07:46:34;;;;;;;28.57;19.50;;;-2.60;1.00;;;;;;4935716;29;20247;-77
2022/01/13 07:49:00;;;;;;;34.60;19.97;;;-2.50;1.00;;;;;;4936636;29;20245;-76
2022/01/13 07:51:26;;;;;;;33.77;21.13;;;-2.70;1.00;;;;;;4936385;29;20266;-78
2022/01/13 07:53:51;;;;;;;32.63;20.13;;;-2.40;1.00;;;;;;4936337;29;20675;-77
2022/01/13 07:56:17;;;;;;;29.13;19.50;;;-2.60;1.00;;;;;;4935696;29;20248;-76
2022/01/13 07:58:44;;;;;;;34.43;19.43;;;-2.70;1.00;;;;;;4936210;29;20262;-77
2022/01/13 08:01:09;;;;;;;30.13;19.37;;;-2.70;1.00;;;;;;4936439;29;20179;-76
2022/01/13 08:03:35;;;;;;;36.60;20.37;;;-2.90;1.00;;;;;;4940210;29;20190;-78
2022/01/13 08:06:01;;;;;;;32.10;20.00;;;-2.80;1.80;;;;;;4935891;29;20639;-79
2022/01/13 08:08:27;;;;;;;31.50;20.10;;;-2.70;1.00;;;;;;4936282;29;20183;-79
2022/01/13 08:10:52;;;;;;;32.90;20.37;;;-2.70;1.00;;;;;;4936094;29;20183;-77
2022/01/13 08:13:18;;;;;;;34.60;20.90;;;-2.60;1.00;;;;;;4936178;29;20546;-78
2022/01/13 08:15:44;;;;;;;29.07;19.40;;;-2.20;1.00;;;;;;4935493;29;20191;-79
2022/01/13 08:20:54;;;;;;;31.90;18.77;;;-0.40;1.00;;;;;;4936149;29;20182;-76
2022/01/13 08:23:19;;;;;;;25.23;17.97;;;-0.70;1.00;;;;;;4935605;29;20179;-76
2022/01/13 08:25:45;;;;;;;31.13;17.83;;;-0.60;59.20;;;;;;4935374;29;20207;-79
2022/01/13 08:28:11;;;;;;;24.63;17.33;;;0.70;99.90;;;;;;4935643;29;20234;-77
2022/01/13 08:30:37;;;;;;;28.57;18.57;;;1.60;99.90;;;;;;4935799;29;20700;-77
2022/01/13 08:33:03;;;;;;;25.70;18.30;;;0.90;86.30;;;;;;4936559;29;20295;-75
2022/01/13 08:35:28;;;;;;;23.07;17.53;;;0.80;99.90;;;;;;4935596;29;20605;-77
2022/01/13 08:37:54;;;;;;;23.27;17.73;;;1.10;20.50;;;;;;4935258;29;20743;-76
2022/01/13 08:40:20;;;;;;;24.77;17.10;;;1.80;1.00;;;;;;4935540;29;20187;-78
2022/01/13 08:42:46;;;;;;;21.10;16.03;;;1.10;99.90;;;;;;4935405;29;20175;-73
2022/01/13 08:45:13;;;;;;;23.70;17.57;;;0.30;99.90;;;;;;4927031;29;20216;-72
2022/01/13 08:47:39;;;;;;;24.80;17.40;;;0.00;1.00;;;;;;4928160;29;20176;-74
2022/01/13 08:50:07;;;;;;;23.67;17.50;;;-0.30;99.90;;;;;;4925082;29;20213;-73
2022/01/13 08:52:33;;;;;;;24.57;18.13;;;0.30;1.00;;;;;;4926815;29;20572;-73
2022/01/13 08:54:59;;;;;;;21.93;16.53;;;-0.30;1.00;;;;;;4925738;29;20218;-75
2022/01/13 08:57:25;;;;;;;25.33;19.00;;;-0.40;99.90;;;;;;4924623;29;20720;-78
2022/01/13 08:59:51;;;;;;;25.80;17.93;;;-0.50;70.00;;;;;;4921607;29;20305;-76
2022/01/13 09:02:16;;;;;;;25.50;18.17;;;-0.10;99.90;;;;;;4927300;29;20187;-76
2022/01/13 09:04:42;;;;;;;24.73;18.53;;;0.30;99.90;;;;;;4917134;29;20264;-77
2022/01/13 09:07:07;;;;;;;25.40;17.93;;;1.40;1.00;;;;;;4916035;29;20653;-76
2022/01/13 09:09:33;;;;;;;24.37;18.30;;;1.00;1.00;;;;;;4916071;29;20220;-76
2022/01/13 09:12:00;;;;;;;21.77;17.30;;;1.90;1.00;;;;;;4915991;29;20176;-77
2022/01/13 09:14:27;;;;;;;21.47;17.80;;;2.70;99.90;;;;;;4915479;29;20180;-77
2022/01/13 09:16:54;;;;;;;21.97;17.00;;;2.90;99.90;;;;;;4916157;29;20179;-78
2022/01/13 09:19:20;;;;;;;22.00;17.47;;;3.80;99.90;;;;;;4922091;29;20635;-78
2022/01/13 09:21:47;;;;;;;21.50;17.93;;;4.00;1.00;;;;;;4924672;29;20179;-77
2022/01/13 09:24:16;;;;;;;21.77;17.33;;;4.10;1.00;;;;;;4915992;29;20195;-78
2022/01/13 09:26:43;;;;;;;20.67;17.60;;;4.70;1.00;;;;;;4916666;29;20195;-78
2022/01/13 09:29:09;;;;;;;22.03;16.87;;;4.80;1.00;;;;;;4916485;29;20176;-82
2022/01/13 09:31:36;;;;;;;21.70;18.10;;;5.30;1.00;;;;;;4929421;29;20263;-80
2022/01/13 09:34:06;;;;;;;20.77;16.87;;;5.40;1.00;;;;;;4935290;29;20179;-77
2022/01/13 09:36:32;;;;;;;24.63;17.70;;;5.70;1.00;;;;;;4932194;29;20239;-78
2022/01/13 09:38:59;;;;;;;20.20;16.67;;;5.70;1.00;;;;;;4924193;29;20251;-77
2022/01/13 09:41:30;;;;;;;18.83;16.83;;;6.70;1.00;;;;;;4927324;29;20184;-79
2022/01/13 09:43:56;;;;;;;19.57;17.17;;;6.80;1.00;;;;;;4932353;29;20176;-78
2022/01/13 09:46:26;;;;;;;19.87;17.77;;;6.60;1.00;;;;;;4940585;29;20203;-79
2022/01/13 09:48:52;;;;;;;21.17;18.17;;;6.40;1.00;;;;;;4936708;29;20203;-78
2022/01/13 09:51:17;;;;;;;19.43;17.37;;;6.30;1.00;;;;;;4924693;29;20211;-78
2022/01/13 09:53:43;;;;;;;19.40;17.40;;;6.40;1.00;;;;;;4927694;29;20183;-78
2022/01/13 09:56:10;;;;;;;19.80;17.60;;;7.00;1.00;;;;;;4926318;29;20282;-78
2022/01/13 09:58:36;;;;;;;20.03;17.90;;;7.40;1.00;;;;;;4930493;29;20684;-78
2022/01/13 10:01:01;;;;;;;21.00;17.60;;;7.50;1.00;;;;;;4933363;29;20183;-79
2022/01/13 10:03:28;;;;;;;24.83;18.83;;;7.40;1.00;;;;;;4933002;29;20186;-79
2022/01/13 10:05:59;;;;;;;26.17;23.37;;;6.80;1.00;;;;;;4939904;29;20218;-77
2022/01/13 10:08:46;;;;;;;30.03;26.83;;;6.40;1.00;;;;;;4937297;29;20951;-77
2022/01/13 10:11:39;;;;;;;21.60;19.30;;;6.60;1.00;;;;;;4936890;29;20243;-78
2022/01/13 10:17:02;;;;;;;20.80;18.60;;;6.90;1.00;;;;;;4908481;29;20230;-80
2022/01/13 10:19:36;;;;;;;20.23;17.83;;;6.30;1.00;;;;;;4939498;29;20223;-79
2022/01/13 10:22:08;;;;;;;21.23;17.90;;;6.50;1.00;;;;;;4939813;29;20253;-78
2022/01/13 10:24:39;;;;;;;21.03;18.17;;;6.00;1.00;;;;;;4938993;29;20183;-78
2022/01/13 10:27:07;;;;;;;23.63;18.40;;;5.70;1.00;;;;;;4939466;29;20287;-77
2022/01/13 10:29:40;;;;;;;20.50;18.30;;;4.80;1.00;;;;;;4934211;29;20214;-77
2022/01/13 10:32:07;;;;;;;20.90;18.20;;;4.80;1.00;;;;;;4928768;29;20180;-78
2022/01/13 10:34:36;;;;;;;21.60;18.53;;;4.50;35.80;;;;;;4921758;29;20183;-78
2022/01/13 10:37:17;;;;;;;19.57;17.47;;;4.30;1.00;;;;;;4923876;29;20208;-78
2022/01/13 10:40:02;;;;;;;23.33;18.33;;;5.10;1.00;;;;;;4920732;29;20227;-79
2022/01/13 10:45:20;;;;;;;25.27;18.53;;;4.60;1.00;;;;;;4937917;29;20450;-79
2022/01/13 10:47:51;;;;;;;23.13;18.30;;;5.40;1.00;;;;;;4940536;29;20206;-80
2022/01/13 10:50:17;;;;;;;23.67;18.00;;;5.70;1.00;;;;;;4939118;29;20672;-80
2022/01/13 10:52:43;;;;;;;23.07;18.40;;;5.40;1.00;;;;;;4939969;29;20215;-79
2022/01/13 10:55:16;;;;;;;25.20;19.10;;;4.40;1.00;;;;;;4936153;29;20255;-78
2022/01/13 10:57:43;;;;;;;22.57;18.33;;;4.20;99.90;;;;;;4925663;29;20267;-79
2022/01/13 11:00:22;;;;;;;23.20;17.70;;;4.40;93.70;;;;;;4922259;29;20199;-80
2022/01/13 11:03:01;;;;;;;26.83;18.37;;;3.70;99.90;;;;;;4927635;29;20180;-79
2022/01/13 11:05:29;;;;;;;23.57;16.60;;;4.40;99.90;;;;;;4922808;29;20213;-77
2022/01/13 11:07:57;;;;;;;20.83;16.83;;;4.90;99.90;;;;;;4927974;29;20180;-78
2022/01/13 11:10:24;;;;;;;20.73;17.17;;;5.40;1.00;;;;;;4935169;29;20191;-77
2022/01/13 11:12:56;;;;;;;18.40;15.63;;;5.00;1.00;;;;;;4935582;29;20179;-77
2022/01/13 11:15:24;;;;;;;20.20;17.00;;;4.60;99.90;;;;;;4934799;29;20203;-77
2022/01/13 11:17:51;;;;;;;19.37;15.80;;;3.90;99.90;;;;;;4934913;29;20672;-78
2022/01/13 11:20:18;;;;;;;16.80;14.83;;;4.90;99.90;;;;;;4935201;29;20688;-79
2022/01/13 11:22:46;;;;;;;18.53;15.83;;;5.60;1.00;;;;;;4917595;29;20234;-78
2022/01/13 11:25:15;;;;;;;18.27;16.30;;;6.50;1.00;;;;;;4933110;29;20206;-78
2022/01/13 11:27:43;;;;;;;18.57;15.30;;;7.70;1.00;;;;;;4925399;29;20187;-77
2022/01/13 11:30:12;;;;;;;19.43;16.67;;;8.40;1.00;;;;;;4933622;29;20183;-77
2022/01/13 11:32:42;;;;;;;20.57;15.97;;;9.10;1.00;;;;;;4936553;29;20171;-76
2022/01/13 11:35:10;;;;;;;22.37;17.73;;;9.40;1.00;;;;;;4935258;29;20207;-77
2022/01/13 11:37:39;;;;;;;21.03;17.53;;;9.90;1.00;;;;;;4930568;29;20235;-76
2022/01/13 11:40:06;;;;;;;22.10;17.73;;;8.20;1.00;;;;;;4926386;29;20264;-77
2022/01/13 11:42:45;;;;;;;18.70;16.13;;;7.70;1.00;;;;;;4925476;29;20171;-76
2022/01/13 11:45:16;;;;;;;20.13;17.13;;;7.80;1.00;;;;;;4924082;29;20191;-77
2022/01/13 11:47:42;;;;;;;18.80;15.30;;;7.50;1.00;;;;;;4924007;29;20215;-79
2022/01/13 11:50:21;;;;;;;14.97;13.37;;;7.70;1.00;;;;;;4926353;29;20648;-76
2022/01/13 11:52:53;;;;;;;16.20;14.50;;;7.80;1.00;;;;;;4928824;29;20190;-78
2022/01/13 11:55:21;;;;;;;15.10;12.90;;;9.10;1.00;;;;;;4933770;29;20199;-78
2022/01/13 11:57:48;;;;;;;19.67;15.07;;;8.40;1.00;;;;;;4931568;29;20179;-77
2022/01/13 12:00:29;;;;;;;22.13;14.63;;;6.60;1.00;;;;;;4934713;29;20294;-78
2022/01/13 12:02:56;;;;;;;19.63;14.23;;;5.90;1.00;;;;;;4933387;29;20281;-78
2022/01/13 12:05:24;;;;;;;18.00;14.00;;;6.50;1.00;;;;;;4928842;29;20199;-77
2022/01/13 12:07:55;;;;;;;13.50;11.60;;;5.90;1.00;;;;;;4920038;29;20599;-78
2022/01/13 12:10:21;;;;;;;22.73;14.33;;;6.00;1.00;;;;;;4924823;29;20168;-78
2022/01/13 12:12:47;;;;;;;15.70;12.87;;;6.60;1.00;;;;;;4923622;29;20198;-77
2022/01/13 12:15:13;;;;;;;17.10;13.43;;;6.70;1.00;;;;;;4921013;29;20592;-77
2022/01/13 12:18:05;;;;;;;19.80;14.27;;;8.80;1.00;;;;;;4924901;29;20190;-77
2022/01/13 12:23:38;;;;;;;19.77;14.00;;;8.70;1.00;;;;;;4917441;29;20537;-77
2022/01/13 12:26:32;;;;;;;21.70;17.80;;;7.50;1.00;;;;;;4912533;29;20590;-78
2022/01/13 12:29:21;;;;;;;27.73;21.87;;;9.30;1.00;;;;;;4932154;29;20244;-76
2022/01/13 12:31:53;;;;;;;16.70;13.60;;;10.40;1.00;;;;;;4926339;29;20203;-78
2022/01/13 12:34:28;;;;;;;19.00;14.63;;;10.20;1.00;;;;;;4924334;29;20175;-80
2022/01/13 12:36:57;;;;;;;20.07;16.70;;;10.50;1.00;;;;;;4935205;29;20555;-78
2022/01/13 12:39:24;;;;;;;18.60;15.13;;;9.90;1.00;;;;;;4934717;29;21096;-77
2022/01/13 12:42:01;;;;;;;18.57;15.53;;;9.30;1.00;;;;;;4933459;29;20266;-77
2022/01/13 12:47:13;;;;;;;20.03;15.00;;;10.10;1.00;;;;;;4926478;29;20190;-77
2022/01/13 12:49:39;;;;;;;21.47;14.27;;;10.30;1.00;;;;;;4933173;29;20207;-75
2022/01/13 12:52:05;;;;;;;21.60;14.70;;;10.30;1.00;;;;;;4932678;29;20287;-77
2022/01/13 12:54:32;;;;;;;19.47;15.30;;;11.00;1.00;;;;;;4932614;29;20628;-76
2022/01/13 12:57:05;;;;;;;18.63;15.60;;;10.30;1.00;;;;;;4932736;29;20190;-76
2022/01/13 12:59:32;;;;;;;19.80;15.03;;;9.40;1.00;;;;;;4933207;29;20630;-75
2022/01/13 13:01:58;;;;;;;18.33;14.87;;;8.70;1.00;;;;;;4934348;29;20187;-77
2022/01/13 13:04:24;;;;;;;17.80;14.07;;;9.00;1.00;;;;;;4934930;29;20269;-78
2022/01/13 13:06:51;;;;;;;18.60;14.40;;;9.50;1.00;;;;;;4935387;29;20789;-76
2022/01/13 13:09:22;;;;;;;22.77;15.50;;;8.80;1.00;;;;;;4970501;23;20277;-80
2022/01/13 13:11:52;;;;;;;17.73;14.37;;;8.90;1.00;;;;;;4969248;29;20191;-80